sensor_id;sensor_type;location;lat;lon;timestamp;pressure;altitude;pressure_sealevel;temperature;humidity
6387;BME280;3226;42.162;24.756;2023-04-05T00:00:11;98985.25;;;5.14;80.90
6387;BME280;3226;42.162;24.756;2023-04-05T00:02:41;98981.91;;;4.87;81.00
6387;BME280;3226;42.162;24.756;2023-04-05T00:05:09;98972.97;;;4.91;81.34
6387;BME280;3226;42.162;24.756;2023-04-05T00:07:38;98990.69;;;4.98;82.07
6387;BME280;3226;42.162;24.756;2023-04-05T00:10:06;98989.97;;;4.96;82.13
6387;BME280;3226;42.162;24.756;2023-04-05T00:12:36;98982.38;;;5.05;81.23
6387;BME280;3226;42.162;24.756;2023-04-05T00:15:04;98987.91;;;4.88;81.87
6387;BME280;3226;42.162;24.756;2023-04-05T00:17:33;98986.03;;;4.77;82.36
6387;BME280;3226;42.162;24.756;2023-04-05T00:20:01;98987.19;;;4.86;82.40
6387;BME280;3226;42.162;24.756;2023-04-05T00:22:33;98989.75;;;4.99;80.97
6387;BME280;3226;42.162;24.756;2023-04-05T00:25:02;98993.06;;;5.01;80.58
6387;BME280;3226;42.162;24.756;2023-04-05T00:27:30;98981.91;;;4.87;79.88
6387;BME280;3226;42.162;24.756;2023-04-05T00:30:00;98974.53;;;4.81;80.43
6387;BME280;3226;42.162;24.756;2023-04-05T00:32:28;98991.19;;;5.03;80.87
6387;BME280;3226;42.162;24.756;2023-04-05T00:34:56;98990.63;;;4.73;81.19
6387;BME280;3226;42.162;24.756;2023-04-05T00:37:24;98993.22;;;4.86;81.44
6387;BME280;3226;42.162;24.756;2023-04-05T00:39:52;98995.09;;;4.84;82.64
6387;BME280;3226;42.162;24.756;2023-04-05T00:42:20;98995.09;;;4.84;82.66
6387;BME280;3226;42.162;24.756;2023-04-05T00:44:48;98997.06;;;4.81;81.74
6387;BME280;3226;42.162;24.756;2023-04-05T00:47:17;99001.94;;;4.72;81.83
6387;BME280;3226;42.162;24.756;2023-04-05T00:49:45;98990.13;;;4.81;81.65
6387;BME280;3226;42.162;24.756;2023-04-05T00:52:14;98992.66;;;4.94;80.86
6387;BME280;3226;42.162;24.756;2023-04-05T00:54:42;98985.75;;;4.56;80.16
6387;BME280;3226;42.162;24.756;2023-04-05T00:57:11;98998.63;;;4.57;80.53
6387;BME280;3226;42.162;24.756;2023-04-05T00:59:39;98999.34;;;4.59;80.95
6387;BME280;3226;42.162;24.756;2023-04-05T01:02:12;98993.44;;;4.57;80.77
6387;BME280;3226;42.162;24.756;2023-04-05T01:04:48;98997.28;;;4.65;81.46
6387;BME280;3226;42.162;24.756;2023-04-05T01:07:24;98999.34;;;4.72;81.29
6387;BME280;3226;42.162;24.756;2023-04-05T01:09:56;99000.06;;;4.74;81.36
6387;BME280;3226;42.162;24.756;2023-04-05T01:12:27;98999.75;;;4.79;80.21
6387;BME280;3226;42.162;24.756;2023-04-05T01:14:58;99004.75;;;4.82;81.36
6387;BME280;3226;42.162;24.756;2023-04-05T01:17:28;99001.09;;;4.85;81.36
6387;BME280;3226;42.162;24.756;2023-04-05T01:20:06;99004.53;;;4.85;80.77
6387;BME280;3226;42.162;24.756;2023-04-05T01:23:05;98999.75;;;4.79;81.26
6387;BME280;3226;42.162;24.756;2023-04-05T01:25:53;98995.09;;;4.71;81.01
6387;BME280;3226;42.162;24.756;2023-04-05T01:28:50;98975.59;;;4.53;80.65
6387;BME280;3226;42.162;24.756;2023-04-05T01:31:29;98967.22;;;4.49;80.24
6387;BME280;3226;42.162;24.756;2023-04-05T01:34:03;99010.75;;;4.70;80.07
6387;BME280;3226;42.162;24.756;2023-04-05T01:36:36;99014.41;;;4.80;81.16
6387;BME280;3226;42.162;24.756;2023-04-05T01:39:08;99015.13;;;4.82;79.83
6387;BME280;3226;42.162;24.756;2023-04-05T01:41:38;99009.38;;;4.77;80.29
6387;BME280;3226;42.162;24.756;2023-04-05T01:44:06;99002.97;;;4.83;80.58
6387;BME280;3226;42.162;24.756;2023-04-05T01:46:35;99011.59;;;4.83;79.94
6387;BME280;3226;42.162;24.756;2023-04-05T01:49:04;99015.22;;;4.68;78.94
6387;BME280;3226;42.162;24.756;2023-04-05T01:51:32;99019.16;;;4.60;80.24
6387;BME280;3226;42.162;24.756;2023-04-05T01:53:59;99017.81;;;4.68;80.92
6387;BME280;3226;42.162;24.756;2023-04-05T01:56:27;99015.50;;;4.76;80.63
6387;BME280;3226;42.162;24.756;2023-04-05T01:58:55;99018.22;;;4.61;81.40
6387;BME280;3226;42.162;24.756;2023-04-05T02:01:24;99014.91;;;4.59;80.75
6387;BME280;3226;42.162;24.756;2023-04-05T02:03:53;99018.03;;;4.65;81.36
6387;BME280;3226;42.162;24.756;2023-04-05T02:06:22;99026.22;;;4.71;80.85
6387;BME280;3226;42.162;24.756;2023-04-05T02:08:50;99025.06;;;4.62;80.80
6387;BME280;3226;42.162;24.756;2023-04-05T02:11:17;99019.25;;;4.59;80.50
6387;BME280;3226;42.162;24.756;2023-04-05T02:13:46;99021.03;;;4.58;80.91
6387;BME280;3226;42.162;24.756;2023-04-05T02:16:14;99024.66;;;4.56;78.33
6387;BME280;3226;42.162;24.756;2023-04-05T02:18:44;99006.28;;;4.59;79.59
6387;BME280;3226;42.162;24.756;2023-04-05T02:21:17;99031.28;;;4.73;79.11
6387;BME280;3226;42.162;24.756;2023-04-05T02:23:47;99029.53;;;4.60;78.20
6387;BME280;3226;42.162;24.756;2023-04-05T02:26:15;99033.78;;;4.48;78.00
6387;BME280;3226;42.162;24.756;2023-04-05T02:28:43;99034.22;;;4.55;79.03
6387;BME280;3226;42.162;24.756;2023-04-05T02:31:11;99039.50;;;4.54;79.56
6387;BME280;3226;42.162;24.756;2023-04-05T02:33:40;99041.13;;;4.42;79.50
6387;BME280;3226;42.162;24.756;2023-04-05T02:36:10;99042.47;;;4.34;77.93
6387;BME280;3226;42.162;24.756;2023-04-05T02:38:40;99041.66;;;4.34;78.13
6387;BME280;3226;42.162;24.756;2023-04-05T02:41:08;99037.09;;;4.25;79.48
6387;BME280;3226;42.162;24.756;2023-04-05T02:43:37;99025.38;;;4.19;79.53
6387;BME280;3226;42.162;24.756;2023-04-05T02:46:05;99047.09;;;4.44;79.97
6387;BME280;3226;42.162;24.756;2023-04-05T02:48:33;99030.16;;;4.38;79.83
6387;BME280;3226;42.162;24.756;2023-04-05T02:51:01;99037.31;;;4.34;79.36
6387;BME280;3226;42.162;24.756;2023-04-05T02:53:29;99048.81;;;4.43;79.82
6387;BME280;3226;42.162;24.756;2023-04-05T02:55:59;99045.41;;;4.43;79.95
6387;BME280;3226;42.162;24.756;2023-04-05T02:58:26;99053.81;;;4.46;78.93
6387;BME280;3226;42.162;24.756;2023-04-05T03:00:55;99055.25;;;4.38;79.06
6387;BME280;3226;42.162;24.756;2023-04-05T03:03:23;99053.38;;;4.40;79.46
6387;BME280;3226;42.162;24.756;2023-04-05T03:05:57;99052.16;;;4.45;78.94
6387;BME280;3226;42.162;24.756;2023-04-05T03:08:32;99060.78;;;4.46;79.96
6387;BME280;3226;42.162;24.756;2023-04-05T03:11:04;99061.81;;;4.56;78.81
6387;BME280;3226;42.162;24.756;2023-04-05T03:13:32;99059.94;;;4.45;78.67
6387;BME280;3226;42.162;24.756;2023-04-05T03:16:00;99067.41;;;4.50;78.95
6387;BME280;3226;42.162;24.756;2023-04-05T03:18:28;99070.81;;;4.51;79.64
6387;BME280;3226;42.162;24.756;2023-04-05T03:20:57;99045.72;;;4.38;78.93
6387;BME280;3226;42.162;24.756;2023-04-05T03:23:26;99069.06;;;4.51;78.77
6387;BME280;3226;42.162;24.756;2023-04-05T03:25:57;99064.88;;;4.36;78.41
6387;BME280;3226;42.162;24.756;2023-04-05T03:28:27;99056.50;;;4.32;77.72
6387;BME280;3226;42.162;24.756;2023-04-05T03:30:55;99074.03;;;4.41;77.86
6387;BME280;3226;42.162;24.756;2023-04-05T03:33:23;99079.91;;;4.30;77.53
6387;BME280;3226;42.162;24.756;2023-04-05T03:35:51;99069.06;;;4.38;77.93
6387;BME280;3226;42.162;24.756;2023-04-05T03:38:19;99051.16;;;4.20;77.81
6387;BME280;3226;42.162;24.756;2023-04-05T03:40:47;99078.19;;;4.44;77.51
6387;BME280;3226;42.162;24.756;2023-04-05T03:43:15;99075.25;;;4.36;78.42
6387;BME280;3226;42.162;24.756;2023-04-05T03:45:45;99075.06;;;4.26;76.43
6387;BME280;3226;42.162;24.756;2023-04-05T03:48:12;99085.78;;;4.19;77.18
6387;BME280;3226;42.162;24.756;2023-04-05T03:50:45;99074.00;;;4.28;78.02
6387;BME280;3226;42.162;24.756;2023-04-05T03:53:14;99081.47;;;4.20;77.98
6387;BME280;3226;42.162;24.756;2023-04-05T03:55:44;99049.22;;;3.84;77.30
6387;BME280;3226;42.162;24.756;2023-04-05T03:58:15;99075.03;;;4.13;77.84
6387;BME280;3226;42.162;24.756;2023-04-05T04:00:44;99082.19;;;4.22;78.51
6387;BME280;3226;42.162;24.756;2023-04-05T04:03:12;99087.44;;;4.08;78.26
6387;BME280;3226;42.162;24.756;2023-04-05T04:05:41;99089.00;;;4.10;78.47
6387;BME280;3226;42.162;24.756;2023-04-05T04:08:09;99095.22;;;4.08;77.49
6387;BME280;3226;42.162;24.756;2023-04-05T04:10:39;99092.22;;;4.14;77.95
6387;BME280;3226;42.162;24.756;2023-04-05T04:13:07;99098.88;;;4.18;76.35
6387;BME280;3226;42.162;24.756;2023-04-05T04:15:35;99096.41;;;4.29;77.57
6387;BME280;3226;42.162;24.756;2023-04-05T04:18:04;99106.06;;;4.40;75.81
6387;BME280;3226;42.162;24.756;2023-04-05T04:20:32;99098.09;;;4.43;75.39
6387;BME280;3226;42.162;24.756;2023-04-05T04:23:00;99117.94;;;4.17;76.55
6387;BME280;3226;42.162;24.756;2023-04-05T04:25:28;99115.28;;;4.31;76.78
6387;BME280;3226;42.162;24.756;2023-04-05T04:27:57;99118.53;;;4.08;76.29
6387;BME280;3226;42.162;24.756;2023-04-05T04:30:26;99114.75;;;4.26;76.91
6387;BME280;3226;42.162;24.756;2023-04-05T04:32:54;99112.56;;;4.20;76.27
6387;BME280;3226;42.162;24.756;2023-04-05T04:35:26;99121.06;;;4.22;76.46
6387;BME280;3226;42.162;24.756;2023-04-05T04:37:55;99127.78;;;4.12;75.59
6387;BME280;3226;42.162;24.756;2023-04-05T04:40:26;99122.47;;;4.13;76.40
6387;BME280;3226;42.162;24.756;2023-04-05T04:42:57;99117.53;;;4.23;76.15
6387;BME280;3226;42.162;24.756;2023-04-05T04:45:25;99121.59;;;4.27;75.00
6387;BME280;3226;42.162;24.756;2023-04-05T04:47:53;99135.84;;;4.47;75.42
6387;BME280;3226;42.162;24.756;2023-04-05T04:50:21;99133.88;;;4.38;75.32
6387;BME280;3226;42.162;24.756;2023-04-05T04:52:51;99140.84;;;4.63;74.73
6387;BME280;3226;42.162;24.756;2023-04-05T04:55:19;99136.53;;;4.64;73.50
6387;BME280;3226;42.162;24.756;2023-04-05T04:57:51;99141.78;;;4.62;74.73
6387;BME280;3226;42.162;24.756;2023-04-05T05:00:20;99143.19;;;4.81;73.50
6387;BME280;3226;42.162;24.756;2023-04-05T05:02:50;99149.19;;;4.82;72.42
6387;BME280;3226;42.162;24.756;2023-04-05T05:05:19;99148.47;;;5.05;73.19
6387;BME280;3226;42.162;24.756;2023-04-05T05:07:48;99151.06;;;5.18;73.14
6387;BME280;3226;42.162;24.756;2023-04-05T05:10:19;99144.41;;;5.27;71.28
6387;BME280;3226;42.162;24.756;2023-04-05T05:12:47;99153.97;;;5.27;71.21
6387;BME280;3226;42.162;24.756;2023-04-05T05:15:18;99147.84;;;5.41;70.71
6387;BME280;3226;42.162;24.756;2023-04-05T05:17:46;99153.31;;;5.62;71.10
6387;BME280;3226;42.162;24.756;2023-04-05T05:20:18;99155.09;;;5.48;69.07
6387;BME280;3226;42.162;24.756;2023-04-05T05:22:47;99156.34;;;5.56;70.65
6387;BME280;3226;42.162;24.756;2023-04-05T05:25:15;99166.56;;;5.70;69.55
6387;BME280;3226;42.162;24.756;2023-04-05T05:27:47;99167.19;;;5.87;69.27
6387;BME280;3226;42.162;24.756;2023-04-05T05:30:15;99171.50;;;5.99;66.98
6387;BME280;3226;42.162;24.756;2023-04-05T05:32:43;99159.75;;;6.06;66.92
6387;BME280;3226;42.162;24.756;2023-04-05T05:35:12;99165.75;;;6.20;67.02
6387;BME280;3226;42.162;24.756;2023-04-05T05:37:40;99161.03;;;6.25;66.79
6387;BME280;3226;42.162;24.756;2023-04-05T05:40:09;99164.19;;;6.53;65.66
6387;BME280;3226;42.162;24.756;2023-04-05T05:42:38;99161.47;;;6.43;65.63
6387;BME280;3226;42.162;24.756;2023-04-05T05:45:09;99142.81;;;6.25;65.56
6387;BME280;3226;42.162;24.756;2023-04-05T05:47:37;99157.13;;;6.31;66.17
6387;BME280;3226;42.162;24.756;2023-04-05T05:50:06;99162.56;;;5.90;66.12
6387;BME280;3226;42.162;24.756;2023-04-05T05:52:35;99162.00;;;6.35;67.00
6387;BME280;3226;42.162;24.756;2023-04-05T05:55:04;99167.16;;;6.48;66.14
6387;BME280;3226;42.162;24.756;2023-04-05T05:57:32;99155.81;;;6.49;65.48
6387;BME280;3226;42.162;24.756;2023-04-05T06:00:00;99162.91;;;6.47;65.75
6387;BME280;3226;42.162;24.756;2023-04-05T06:02:31;99160.84;;;6.40;65.61
6387;BME280;3226;42.162;24.756;2023-04-05T06:04:59;99157.94;;;6.20;65.21
6387;BME280;3226;42.162;24.756;2023-04-05T06:07:29;99161.47;;;6.19;66.00
6387;BME280;3226;42.162;24.756;2023-04-05T06:09:58;99172.16;;;6.03;67.19
6387;BME280;3226;42.162;24.756;2023-04-05T06:12:26;99168.31;;;5.83;66.99
6387;BME280;3226;42.162;24.756;2023-04-05T06:14:54;99174.41;;;5.94;66.37
6387;BME280;3226;42.162;24.756;2023-04-05T06:17:22;99161.31;;;5.96;66.93
6387;BME280;3226;42.162;24.756;2023-04-05T06:19:51;99172.75;;;6.06;66.43
6387;BME280;3226;42.162;24.756;2023-04-05T06:22:19;99177.34;;;6.27;67.42
6387;BME280;3226;42.162;24.756;2023-04-05T06:24:49;99181.94;;;6.24;66.06
6387;BME280;3226;42.162;24.756;2023-04-05T06:27:17;99177.16;;;6.42;66.87
6387;BME280;3226;42.162;24.756;2023-04-05T06:29:45;99183.59;;;6.25;65.84
6387;BME280;3226;42.162;24.756;2023-04-05T06:32:13;99175.97;;;6.34;64.96
6387;BME280;3226;42.162;24.756;2023-04-05T06:34:41;99175.00;;;6.35;64.37
6387;BME280;3226;42.162;24.756;2023-04-05T06:37:13;99168.22;;;6.21;64.94
6387;BME280;3226;42.162;24.756;2023-04-05T06:39:41;99188.47;;;6.29;64.27
6387;BME280;3226;42.162;24.756;2023-04-05T06:42:09;99200.41;;;6.32;64.42
6387;BME280;3226;42.162;24.756;2023-04-05T06:44:37;99193.03;;;6.50;63.59
6387;BME280;3226;42.162;24.756;2023-04-05T06:47:05;99194.88;;;6.36;63.56
6387;BME280;3226;42.162;24.756;2023-04-05T06:49:33;99202.91;;;6.33;63.42
6387;BME280;3226;42.162;24.756;2023-04-05T06:52:01;99199.19;;;6.49;63.68
6387;BME280;3226;42.162;24.756;2023-04-05T06:54:33;99209.19;;;6.18;63.37
6387;BME280;3226;42.162;24.756;2023-04-05T06:57:01;99200.47;;;6.19;64.02
6387;BME280;3226;42.162;24.756;2023-04-05T06:59:29;99209.53;;;6.13;63.81
6387;BME280;3226;42.162;24.756;2023-04-05T07:01:57;99208.63;;;6.01;63.54
6387;BME280;3226;42.162;24.756;2023-04-05T07:04:25;99214.91;;;6.23;63.94
6387;BME280;3226;42.162;24.756;2023-04-05T07:06:59;99214.97;;;6.10;64.63
6387;BME280;3226;42.162;24.756;2023-04-05T07:09:29;99222.28;;;6.29;65.02
6387;BME280;3226;42.162;24.756;2023-04-05T07:12:00;99195.81;;;6.11;64.22
6387;BME280;3226;42.162;24.756;2023-04-05T07:14:29;99231.00;;;6.04;63.86
6387;BME280;3226;42.162;24.756;2023-04-05T07:16:57;99209.53;;;6.38;64.92
6387;BME280;3226;42.162;24.756;2023-04-05T07:19:25;99209.34;;;6.52;63.38
6387;BME280;3226;42.162;24.756;2023-04-05T07:21:54;99231.03;;;6.88;62.86
6387;BME280;3226;42.162;24.756;2023-04-05T07:24:22;99230.69;;;6.93;62.41
6387;BME280;3226;42.162;24.756;2023-04-05T07:26:51;99235.09;;;7.04;63.04
6387;BME280;3226;42.162;24.756;2023-04-05T07:29:20;99243.25;;;6.63;60.54
6387;BME280;3226;42.162;24.756;2023-04-05T07:31:48;99241.97;;;6.69;60.86
6387;BME280;3226;42.162;24.756;2023-04-05T07:34:16;99248.91;;;6.93;61.12
6387;BME280;3226;42.162;24.756;2023-04-05T07:36:44;99198.97;;;6.52;61.56
6387;BME280;3226;42.162;24.756;2023-04-05T07:39:13;99239.63;;;7.13;62.39
6387;BME280;3226;42.162;24.756;2023-04-05T07:41:41;99242.47;;;7.21;62.24
6387;BME280;3226;42.162;24.756;2023-04-05T07:44:09;99232.34;;;7.41;60.05
6387;BME280;3226;42.162;24.756;2023-04-05T07:46:38;99251.06;;;7.69;60.63
6387;BME280;3226;42.162;24.756;2023-04-05T07:49:14;99228.31;;;7.48;57.31
6387;BME280;3226;42.162;24.756;2023-04-05T07:51:42;99256.97;;;7.48;58.25
6387;BME280;3226;42.162;24.756;2023-04-05T07:54:10;99259.84;;;7.79;59.00
6387;BME280;3226;42.162;24.756;2023-04-05T07:56:38;99259.50;;;7.84;59.16
6387;BME280;3226;42.162;24.756;2023-04-05T07:59:06;99265.53;;;8.07;59.21
6387;BME280;3226;42.162;24.756;2023-04-05T08:01:34;99255.66;;;8.11;57.96
6387;BME280;3226;42.162;24.756;2023-04-05T08:04:04;99270.22;;;8.25;59.18
6387;BME280;3226;42.162;24.756;2023-04-05T08:06:32;99251.06;;;7.46;58.25
6387;BME280;3226;42.162;24.756;2023-04-05T08:09:00;99257.94;;;7.70;59.33
6387;BME280;3226;42.162;24.756;2023-04-05T08:11:31;99258.66;;;7.84;58.35
6387;BME280;3226;42.162;24.756;2023-04-05T08:13:59;99268.06;;;8.30;58.11
6387;BME280;3226;42.162;24.756;2023-04-05T08:16:27;99275.41;;;8.59;53.29
6387;BME280;3226;42.162;24.756;2023-04-05T08:18:55;99253.38;;;8.29;54.48
6387;BME280;3226;42.162;24.756;2023-04-05T08:21:24;99275.63;;;8.67;55.45
6387;BME280;3226;42.162;24.756;2023-04-05T08:23:52;99273.81;;;9.01;53.97
6387;BME280;3226;42.162;24.756;2023-04-05T08:26:21;99265.88;;;9.23;53.77
6387;BME280;3226;42.162;24.756;2023-04-05T08:28:49;99272.66;;;9.36;52.89
6387;BME280;3226;42.162;24.756;2023-04-05T08:31:17;99289.78;;;9.40;53.94
6387;BME280;3226;42.162;24.756;2023-04-05T08:33:46;99293.97;;;8.77;53.26
6387;BME280;3226;42.162;24.756;2023-04-05T08:36:14;99287.00;;;8.99;54.39
6387;BME280;3226;42.162;24.756;2023-04-05T08:38:43;99288.47;;;9.55;53.14
6387;BME280;3226;42.162;24.756;2023-04-05T08:41:15;99272.09;;;9.53;52.45
6387;BME280;3226;42.162;24.756;2023-04-05T08:43:51;99281.13;;;9.71;53.37
6387;BME280;3226;42.162;24.756;2023-04-05T08:46:22;99289.34;;;9.66;53.72
6387;BME280;3226;42.162;24.756;2023-04-05T08:48:50;99290.94;;;9.78;52.24
6387;BME280;3226;42.162;24.756;2023-04-05T08:51:19;99274.09;;;9.40;50.86
6387;BME280;3226;42.162;24.756;2023-04-05T08:53:49;99298.09;;;9.34;52.35
6387;BME280;3226;42.162;24.756;2023-04-05T08:56:19;99301.75;;;9.21;53.16
6387;BME280;3226;42.162;24.756;2023-04-05T08:58:56;99293.97;;;9.31;53.34
6387;BME280;3226;42.162;24.756;2023-04-05T09:01:29;99296.13;;;9.05;52.86
6387;BME280;3226;42.162;24.756;2023-04-05T09:04:00;99304.16;;;9.13;53.99
6387;BME280;3226;42.162;24.756;2023-04-05T09:06:28;99300.03;;;9.32;54.15
6387;BME280;3226;42.162;24.756;2023-04-05T09:08:58;99312.97;;;9.12;53.44
6387;BME280;3226;42.162;24.756;2023-04-05T09:11:26;99307.84;;;9.32;53.31
6387;BME280;3226;42.162;24.756;2023-04-05T09:13:54;99314.88;;;9.10;54.14
6387;BME280;3226;42.162;24.756;2023-04-05T09:16:23;99312.13;;;9.11;53.70
6387;BME280;3226;42.162;24.756;2023-04-05T09:18:52;99315.94;;;8.75;53.10
6387;BME280;3226;42.162;24.756;2023-04-05T09:21:20;99311.00;;;8.60;54.07
6387;BME280;3226;42.162;24.756;2023-04-05T09:23:53;99318.00;;;8.92;55.91
6387;BME280;3226;42.162;24.756;2023-04-05T09:26:23;99312.47;;;8.86;55.23
6387;BME280;3226;42.162;24.756;2023-04-05T09:28:52;99307.09;;;8.55;55.66
6387;BME280;3226;42.162;24.756;2023-04-05T09:31:30;99319.00;;;8.80;55.30
6387;BME280;3226;42.162;24.756;2023-04-05T09:34:01;99318.34;;;8.99;53.28
6387;BME280;3226;42.162;24.756;2023-04-05T09:36:29;99297.13;;;8.92;53.37
6387;BME280;3226;42.162;24.756;2023-04-05T09:39:04;99326.25;;;8.88;53.00
6387;BME280;3226;42.162;24.756;2023-04-05T09:41:35;99321.28;;;8.73;55.59
6387;BME280;3226;42.162;24.756;2023-04-05T09:44:04;99312.69;;;8.16;53.78
6387;BME280;3226;42.162;24.756;2023-04-05T09:46:34;99313.94;;;8.44;55.51
6387;BME280;3226;42.162;24.756;2023-04-05T09:49:04;99318.41;;;8.76;55.31
6387;BME280;3226;42.162;24.756;2023-04-05T09:51:36;99312.19;;;8.67;55.51
6387;BME280;3226;42.162;24.756;2023-04-05T09:54:05;99298.78;;;8.93;55.30
6387;BME280;3226;42.162;24.756;2023-04-05T09:56:36;99303.97;;;9.05;54.19
6387;BME280;3226;42.162;24.756;2023-04-05T09:59:06;99322.81;;;8.76;54.14
6387;BME280;3226;42.162;24.756;2023-04-05T10:01:36;99319.41;;;8.64;53.13
6387;BME280;3226;42.162;24.756;2023-04-05T10:04:07;99321.78;;;8.67;53.26
6387;BME280;3226;42.162;24.756;2023-04-05T10:06:36;99321.81;;;8.88;54.23
6387;BME280;3226;42.162;24.756;2023-04-05T10:09:06;99308.56;;;8.80;53.88
6387;BME280;3226;42.162;24.756;2023-04-05T10:11:37;99328.72;;;8.89;51.73
6387;BME280;3226;42.162;24.756;2023-04-05T10:14:06;99324.34;;;8.90;53.48
6387;BME280;3226;42.162;24.756;2023-04-05T10:16:37;99307.88;;;8.78;53.75
6387;BME280;3226;42.162;24.756;2023-04-05T10:19:16;99320.88;;;8.57;53.87
6387;BME280;3226;42.162;24.756;2023-04-05T10:21:46;99324.19;;;8.24;54.20
6387;BME280;3226;42.162;24.756;2023-04-05T10:24:21;99317.22;;;8.02;55.88
6387;BME280;3226;42.162;24.756;2023-04-05T10:27:04;99320.16;;;8.32;55.76
6387;BME280;3226;42.162;24.756;2023-04-05T10:29:37;99320.75;;;8.13;54.99
6387;BME280;3226;42.162;24.756;2023-04-05T10:32:11;99312.09;;;7.89;54.65
6387;BME280;3226;42.162;24.756;2023-04-05T10:34:44;99330.84;;;8.17;55.66
6387;BME280;3226;42.162;24.756;2023-04-05T10:37:24;99331.06;;;8.25;54.82
6387;BME280;3226;42.162;24.756;2023-04-05T10:39:59;99324.28;;;8.46;54.42
6387;BME280;3226;42.162;24.756;2023-04-05T10:42:36;99322.38;;;8.48;53.83
6387;BME280;3226;42.162;24.756;2023-04-05T10:45:08;99330.00;;;8.39;54.69
6387;BME280;3226;42.162;24.756;2023-04-05T10:47:46;99322.16;;;8.51;54.27
6387;BME280;3226;42.162;24.756;2023-04-05T10:50:20;99327.84;;;8.22;54.03
6387;BME280;3226;42.162;24.756;2023-04-05T10:52:50;99331.75;;;7.71;54.13
6387;BME280;3226;42.162;24.756;2023-04-05T10:55:19;99333.06;;;7.88;55.07
6387;BME280;3226;42.162;24.756;2023-04-05T10:57:49;99310.31;;;7.90;55.26
6387;BME280;3226;42.162;24.756;2023-04-05T11:00:18;99335.69;;;7.88;55.34
6387;BME280;3226;42.162;24.756;2023-04-05T11:02:47;99324.66;;;7.95;56.62
6387;BME280;3226;42.162;24.756;2023-04-05T11:05:30;99332.13;;;8.23;55.81
6387;BME280;3226;42.162;24.756;2023-04-05T11:08:03;99331.88;;;8.49;57.34
6387;BME280;3226;42.162;24.756;2023-04-05T11:10:33;99338.03;;;8.59;55.21
6387;BME280;3226;42.162;24.756;2023-04-05T11:13:07;99336.69;;;8.76;53.32
6387;BME280;3226;42.162;24.756;2023-04-05T11:15:37;99336.28;;;8.92;53.58
6387;BME280;3226;42.162;24.756;2023-04-05T11:18:07;99327.47;;;9.05;53.09
6387;BME280;3226;42.162;24.756;2023-04-05T11:20:44;99336.72;;;8.65;53.64
6387;BME280;3226;42.162;24.756;2023-04-05T11:23:14;99333.31;;;8.30;53.29
6387;BME280;3226;42.162;24.756;2023-04-05T11:25:49;99333.06;;;8.67;53.81
6387;BME280;3226;42.162;24.756;2023-04-05T11:28:28;99336.25;;;8.71;53.91
6387;BME280;3226;42.162;24.756;2023-04-05T11:31:11;99338.25;;;8.79;52.68
6387;BME280;3226;42.162;24.756;2023-04-05T11:33:55;99337.75;;;8.85;53.90
6387;BME280;3226;42.162;24.756;2023-04-05T11:36:33;99336.53;;;8.89;54.16
6387;BME280;3226;42.162;24.756;2023-04-05T11:39:22;99334.19;;;8.86;53.66
6387;BME280;3226;42.162;24.756;2023-04-05T11:41:57;99339.66;;;8.83;54.36
6387;BME280;3226;42.162;24.756;2023-04-05T11:44:27;99321.44;;;8.49;54.08
6387;BME280;3226;42.162;24.756;2023-04-05T11:46:56;99335.22;;;8.51;54.53
6387;BME280;3226;42.162;24.756;2023-04-05T11:49:24;99340.56;;;8.49;54.41
6387;BME280;3226;42.162;24.756;2023-04-05T11:51:52;99340.28;;;8.41;53.55
6387;BME280;3226;42.162;24.756;2023-04-05T11:54:31;99340.91;;;8.45;55.22
6387;BME280;3226;42.162;24.756;2023-04-05T11:57:00;99345.28;;;8.67;54.46
6387;BME280;3226;42.162;24.756;2023-04-05T11:59:31;99345.69;;;8.95;54.03
6387;BME280;3226;42.162;24.756;2023-04-05T12:02:01;99321.69;;;8.46;53.15
6387;BME280;3226;42.162;24.756;2023-04-05T12:04:29;99344.47;;;8.32;53.80
6387;BME280;3226;42.162;24.756;2023-04-05T12:07:10;99332.31;;;8.65;54.67
6387;BME280;3226;42.162;24.756;2023-04-05T12:10:01;99336.88;;;8.41;54.05
6387;BME280;3226;42.162;24.756;2023-04-05T12:12:34;99347.19;;;8.65;54.14
6387;BME280;3226;42.162;24.756;2023-04-05T12:15:06;99337.59;;;8.98;52.86
6387;BME280;3226;42.162;24.756;2023-04-05T12:17:40;99327.59;;;8.59;52.53
6387;BME280;3226;42.162;24.756;2023-04-05T12:20:10;99334.16;;;8.53;53.17
6387;BME280;3226;42.162;24.756;2023-04-05T12:22:40;99337.91;;;8.72;55.12
6387;BME280;3226;42.162;24.756;2023-04-05T12:25:09;99334.63;;;8.59;53.83
6387;BME280;3226;42.162;24.756;2023-04-05T12:27:38;99330.94;;;8.38;55.17
6387;BME280;3226;42.162;24.756;2023-04-05T12:30:13;99332.34;;;8.54;54.67
6387;BME280;3226;42.162;24.756;2023-04-05T12:32:45;99324.78;;;8.51;53.93
6387;BME280;3226;42.162;24.756;2023-04-05T12:35:18;99338.06;;;8.36;54.45
6387;BME280;3226;42.162;24.756;2023-04-05T12:37:48;99330.91;;;8.61;53.71
6387;BME280;3226;42.162;24.756;2023-04-05T12:40:19;99335.19;;;8.74;55.23
6387;BME280;3226;42.162;24.756;2023-04-05T12:42:48;99340.75;;;8.46;55.43
6387;BME280;3226;42.162;24.756;2023-04-05T12:45:22;99334.25;;;8.41;56.74
6387;BME280;3226;42.162;24.756;2023-04-05T12:47:51;99330.69;;;8.30;57.57
6387;BME280;3226;42.162;24.756;2023-04-05T12:50:25;99329.78;;;8.08;58.56
6387;BME280;3226;42.162;24.756;2023-04-05T12:52:56;99340.91;;;8.22;57.23
6387;BME280;3226;42.162;24.756;2023-04-05T12:55:25;99296.81;;;8.07;57.11
6387;BME280;3226;42.162;24.756;2023-04-05T12:57:54;99319.09;;;8.23;57.37
6387;BME280;3226;42.162;24.756;2023-04-05T13:00:28;99341.63;;;8.13;56.78
6387;BME280;3226;42.162;24.756;2023-04-05T13:02:58;99336.66;;;7.98;57.13
6387;BME280;3226;42.162;24.756;2023-04-05T13:05:27;99327.66;;;8.02;56.19
6387;BME280;3226;42.162;24.756;2023-04-05T13:07:56;99337.84;;;8.05;55.56
6387;BME280;3226;42.162;24.756;2023-04-05T13:10:24;99341.88;;;8.09;56.34
6387;BME280;3226;42.162;24.756;2023-04-05T13:12:53;99351.13;;;8.02;57.22
6387;BME280;3226;42.162;24.756;2023-04-05T13:15:21;99340.66;;;7.68;60.23
6387;BME280;3226;42.162;24.756;2023-04-05T13:17:50;99352.97;;;7.66;64.17
6387;BME280;3226;42.162;24.756;2023-04-05T13:20:20;99346.75;;;7.44;66.87
6387;BME280;3226;42.162;24.756;2023-04-05T13:22:49;99345.19;;;7.42;67.36
6387;BME280;3226;42.162;24.756;2023-04-05T13:25:17;99315.69;;;7.30;67.71
6387;BME280;3226;42.162;24.756;2023-04-05T13:27:45;99292.81;;;7.33;67.67
6387;BME280;3226;42.162;24.756;2023-04-05T13:30:13;99344.53;;;7.62;65.99
6387;BME280;3226;42.162;24.756;2023-04-05T13:32:42;99342.06;;;7.61;66.45
6387;BME280;3226;42.162;24.756;2023-04-05T13:35:11;99348.25;;;7.82;63.30
6387;BME280;3226;42.162;24.756;2023-04-05T13:37:39;99335.44;;;7.79;64.21